Time;durP1;ratioP1;P1;durP2;ratioP2;P2;SDS_P1;SDS_P2;PMS_P1;PMS_P2;Temp;Humidity;BMP_temperature;BMP_pressure;BME280_temperature;BME280_humidity;BME280_pressure;Samples;Min_cycle;Max_cycle;Signal;HPM_P1;HPM_P2
2023/01/12 00:02:12;;;;;;;6.22;1.90;;;;;;;6.84;100.00;100880.41;5068458;28;20483;-65
2023/01/12 00:04:38;;;;;;;9.00;2.00;;;;;;;6.87;100.00;100877.09;5068383;28;20056;-65
2023/01/12 00:07:08;;;;;;;8.02;1.65;;;;;;;6.86;100.00;100883.94;5066537;28;20058;-65
2023/01/12 00:09:34;;;;;;;7.80;2.28;;;;;;;6.86;100.00;100889.09;5067476;28;20388;-64
2023/01/12 00:12:02;;;;;;;8.68;1.88;;;;;;;6.87;100.00;100888.31;5068044;28;20029;-65
2023/01/12 00:14:28;;;;;;;10.07;2.03;;;;;;;6.87;100.00;100885.72;5068047;28;20798;-65
2023/01/12 00:16:53;;;;;;;8.07;1.63;;;;;;;6.88;100.00;100882.31;5067271;28;20032;-65
2023/01/12 00:19:20;;;;;;;9.55;2.28;;;;;;;6.88;100.00;100877.19;5068230;28;20541;-65
2023/01/12 00:24:29;;;;;;;13.40;2.42;;;;;;;6.93;100.00;100870.56;5068289;28;20041;-65
2023/01/12 00:26:56;;;;;;;6.13;2.00;;;;;;;6.95;100.00;100862.88;5067818;28;20036;-64
2023/01/12 00:29:22;;;;;;;9.88;2.35;;;;;;;6.97;100.00;100862.16;5067678;28;20035;-65
2023/01/12 00:31:48;;;;;;;12.45;2.55;;;;;;;7.02;100.00;100859.78;5065839;28;20032;-66
2023/01/12 00:34:14;;;;;;;5.22;1.63;;;;;;;7.06;100.00;100860.81;5067733;28;20025;-65
2023/01/12 00:36:40;;;;;;;9.38;2.88;;;;;;;7.08;100.00;100841.16;5067939;28;20094;-65
2023/01/12 00:39:05;;;;;;;10.45;2.20;;;;;;;7.08;100.00;100844.63;5067933;28;20016;-65
2023/01/12 00:46:58;;;;;;;8.38;2.25;;;;;;;7.09;100.00;100823.19;5068356;28;20094;-65
2023/01/12 00:49:23;;;;;;;9.38;2.33;;;;;;;7.10;100.00;100824.09;5066090;28;20248;-65
2023/01/12 00:51:48;;;;;;;9.63;1.98;;;;;;;7.12;100.00;100831.88;5067600;28;20029;-65
2023/01/12 00:54:14;;;;;;;10.60;2.50;;;;;;;7.12;100.00;100827.63;5067311;28;20028;-65
2023/01/12 00:56:39;;;;;;;7.03;2.47;;;;;;;7.14;100.00;100825.09;5067755;28;20022;-65
2023/01/12 00:59:05;;;;;;;12.65;2.50;;;;;;;7.12;100.00;100814.72;5067625;28;20028;-65
2023/01/12 01:01:32;;;;;;;10.18;2.63;;;;;;;7.10;100.00;100816.34;5067308;28;20383;-65
2023/01/12 01:03:57;;;;;;;12.23;2.58;;;;;;;7.10;100.00;100811.19;5067276;28;20032;-64
2023/01/12 01:06:23;;;;;;;10.75;2.53;;;;;;;7.10;100.00;100800.88;5067199;28;20024;-65
2023/01/12 01:08:49;;;;;;;11.38;2.67;;;;;;;7.10;100.00;100806.03;5066870;28;20044;-65
2023/01/12 01:11:15;;;;;;;12.40;3.40;;;;;;;7.07;100.00;100800.72;5067337;28;20070;-65
2023/01/12 01:13:42;;;;;;;9.82;2.47;;;;;;;7.07;100.00;100796.47;5066967;28;20028;-65
2023/01/12 01:16:10;;;;;;;14.10;2.50;;;;;;;7.07;100.00;100796.47;5066932;28;20021;-65
2023/01/12 01:18:35;;;;;;;10.95;4.05;;;;;;;7.08;100.00;100793.09;5067199;28;20029;-65
2023/01/12 01:21:01;;;;;;;12.40;3.63;;;;;;;7.12;100.00;100786.38;5070398;28;20570;-65
2023/01/12 01:23:27;;;;;;;16.35;3.22;;;;;;;7.14;100.00;100786.44;5071059;28;20020;-65
2023/01/12 01:25:53;;;;;;;12.95;3.28;;;;;;;7.13;100.00;100782.09;5071387;28;20031;-65
2023/01/12 01:28:20;;;;;;;11.93;3.10;;;;;;;7.14;100.00;100782.16;5070585;28;20358;-65
2023/01/12 01:30:45;;;;;;;13.52;3.22;;;;;;;7.12;100.00;100776.06;5070941;28;20028;-65
2023/01/12 01:33:12;;;;;;;23.25;3.97;;;;;;;7.10;100.00;100777.69;5071233;28;20038;-65
2023/01/12 01:35:37;;;;;;;14.20;3.10;;;;;;;7.11;100.00;100778.56;5070916;28;20433;-65
2023/01/12 01:38:04;;;;;;;14.07;2.70;;;;;;;7.12;100.00;100778.66;5070441;28;20032;-65
2023/01/12 01:40:30;;;;;;;17.35;3.83;;;;;;;7.13;100.00;100776.94;5070968;28;20028;-65
2023/01/12 01:42:56;;;;;;;10.88;3.40;;;;;;;7.14;100.00;100774.41;5071290;28;20514;-65
2023/01/12 01:45:21;;;;;;;18.63;3.40;;;;;;;7.16;100.00;100784.81;5070971;28;20029;-65
2023/01/12 01:47:50;;;;;;;13.57;3.58;;;;;;;7.15;100.00;100789.09;5070723;28;20028;-65
2023/01/12 01:50:19;;;;;;;9.55;2.80;;;;;;;7.14;100.00;100774.41;5071095;28;20044;-65
2023/01/12 01:52:50;;;;;;;20.48;4.20;;;;;;;7.15;100.00;100762.44;5070921;28;20048;-65
2023/01/12 01:55:23;;;;;;;;;;;;;;;7.12;100.00;100760.59;5071968;28;20032;-65
2023/01/12 01:58:02;;;;;;;14.98;2.92;;;;;;;7.13;100.00;100756.31;5070976;28;19934;-65
2023/01/12 02:00:28;;;;;;;19.08;3.72;;;;;;;7.11;100.00;100740.78;5071029;28;20016;-65
2023/01/12 02:02:54;;;;;;;9.63;3.13;;;;;;;7.12;100.00;100736.53;5071155;28;20020;-65
2023/01/12 02:05:24;;;;;;;14.32;2.75;;;;;;;7.12;100.00;100732.25;5070921;28;20032;-65
2023/01/12 02:07:51;;;;;;;17.45;3.75;;;;;;;7.09;100.00;100730.41;5070892;28;20032;-65
2023/01/12 02:10:18;;;;;;;15.60;2.60;;;;;;;7.13;100.00;100726.28;5071073;28;20383;-66
2023/01/12 02:18:37;;;;;;;15.80;3.28;;;;;;;7.12;100.00;100721.06;5071046;28;20090;-65
2023/01/12 02:21:30;;;;;;;16.42;3.25;;;;;;;7.12;100.00;100721.94;5070863;28;20025;-65
2023/01/12 02:24:11;;;;;;;16.63;3.28;;;;;;;7.12;100.00;100710.75;5070526;28;20032;-65
2023/01/12 02:27:08;;;;;;;16.25;3.45;;;;;;;7.13;100.00;100708.25;5070857;28;20184;-65
2023/01/12 02:30:07;;;;;;;15.70;2.45;;;;;;;7.10;100.00;100700.38;5051973;28;20040;-65
2023/01/12 02:32:41;;;;;;;17.65;4.15;;;;;;;7.09;100.00;100704.66;5040420;28;20128;-65
2023/01/12 02:35:12;;;;;;;15.18;3.08;;;;;;;7.12;100.00;100710.75;5070340;28;20031;-65
2023/01/12 02:38:03;;;;;;;12.77;4.32;;;;;;;7.12;100.00;100696.19;5070798;28;20039;-65
2023/01/12 02:40:44;;;;;;;17.08;4.25;;;;;;;7.13;100.00;100695.34;5070408;28;20476;-65
2023/01/12 02:43:24;;;;;;;19.38;3.97;;;;;;;7.13;100.00;100690.19;5071045;28;20024;-65
2023/01/12 02:45:57;;;;;;;11.98;3.28;;;;;;;7.15;100.00;100669.66;5069314;28;20021;-65
2023/01/12 02:48:23;;;;;;;15.77;2.72;;;;;;;7.18;100.00;100682.66;5070382;28;20028;-65
2023/01/12 02:50:56;;;;;;;16.88;3.47;;;;;;;7.20;100.00;100681.91;5069933;28;20059;-65
2023/01/12 02:53:29;;;;;;;21.67;3.67;;;;;;;7.23;100.00;100677.72;5070170;28;20122;-65
2023/01/12 02:55:58;;;;;;;12.82;3.50;;;;;;;7.23;100.00;100677.72;5070187;28;20024;-65
2023/01/12 02:58:27;;;;;;;12.23;3.50;;;;;;;7.22;100.00;100671.69;5070011;28;20078;-65
2023/01/12 03:00:56;;;;;;;13.52;3.22;;;;;;;7.20;100.00;100666.47;5069863;28;20025;-65
2023/01/12 03:03:22;;;;;;;14.93;3.90;;;;;;;7.24;100.00;100658.84;5070023;28;20495;-65
2023/01/12 03:05:47;;;;;;;15.88;3.05;;;;;;;7.22;100.00;100658.78;5069258;28;20032;-65
2023/01/12 03:08:16;;;;;;;16.10;3.38;;;;;;;7.25;100.00;100655.47;5069907;28;20031;-65
2023/01/12 03:10:50;;;;;;;13.32;2.50;;;;;;;7.21;100.00;100634.69;5069765;28;20488;-65
2023/01/12 03:13:18;;;;;;;15.55;3.88;;;;;;;7.23;100.00;100639.94;5069716;28;20025;-65
2023/01/12 03:15:50;;;;;;;15.57;3.03;;;;;;;7.23;100.00;100631.31;5069765;28;20054;-65
2023/01/12 03:18:41;;;;;;;10.93;3.70;;;;;;;7.23;100.00;100618.44;5069515;28;20040;-65
2023/01/12 03:21:31;;;;;;;13.18;2.75;;;;;;;7.24;100.00;100615.03;5068842;28;20032;-65
2023/01/12 03:24:07;;;;;;;13.20;3.22;;;;;;;7.21;100.00;100611.50;5069430;28;20036;-65
2023/01/12 03:26:35;;;;;;;11.32;2.30;;;;;;;7.21;100.00;100614.09;5069384;28;20362;-65
2023/01/12 03:29:11;;;;;;;11.18;2.47;;;;;;;7.21;100.00;100600.34;5069281;28;20032;-65
2023/01/12 03:31:36;;;;;;;12.27;2.78;;;;;;;7.24;100.00;100581.53;5068494;28;20082;-65
2023/01/12 03:34:03;;;;;;;12.50;2.67;;;;;;;7.28;100.00;100586.00;5068195;28;20028;-65
2023/01/12 03:36:45;;;;;;;17.60;2.85;;;;;;;7.28;100.00;100584.31;5068375;28;20123;-65
2023/01/12 03:39:24;;;;;;;13.90;2.50;;;;;;;7.27;100.00;100577.38;5068678;28;20028;-65
2023/01/12 03:41:58;;;;;;;12.45;2.72;;;;;;;7.27;100.00;100579.06;5067819;28;20028;-65
2023/01/12 03:44:35;;;;;;;9.68;2.35;;;;;;;7.27;100.00;100579.94;5068484;28;20150;-65
2023/01/12 03:47:07;;;;;;;9.35;2.40;;;;;;;7.26;100.00;100562.75;5068312;28;20035;-65
2023/01/12 03:49:53;;;;;;;9.95;2.63;;;;;;;7.25;100.00;100579.00;5067657;28;20405;-65
2023/01/12 03:52:21;;;;;;;10.20;3.03;;;;;;;7.25;100.00;100562.69;5068191;28;20170;-65
2023/01/12 03:54:48;;;;;;;8.50;2.50;;;;;;;7.29;100.00;100533.63;5068334;28;20036;-65
2023/01/12 03:57:15;;;;;;;11.10;2.05;;;;;;;7.25;100.00;100518.88;5068493;28;20024;-65
2023/01/12 03:59:41;;;;;;;8.73;2.28;;;;;;;7.27;100.00;100519.78;5068923;28;20035;-65
2023/01/12 04:02:06;;;;;;;8.57;2.00;;;;;;;7.27;100.00;100500.03;5068356;28;20024;-65
2023/01/12 04:04:31;;;;;;;11.40;2.80;;;;;;;7.25;100.00;100495.66;5068421;28;20035;-65
2023/01/12 04:06:57;;;;;;;9.02;2.20;;;;;;;7.25;100.00;100496.53;5068517;28;20032;-65
2023/01/12 04:09:24;;;;;;;9.70;2.25;;;;;;;7.25;100.00;100490.50;5068228;28;20472;-65
2023/01/12 04:14:34;;;;;;;10.43;2.55;;;;;;;7.21;100.00;100490.38;5068414;28;20039;-65
2023/01/12 04:16:59;;;;;;;7.18;2.00;;;;;;;7.24;100.00;100468.13;5067787;28;20111;-65
2023/01/12 04:19:24;;;;;;;9.05;2.10;;;;;;;7.27;100.00;100474.28;5067658;28;20036;-65
2023/01/12 04:24:33;;;;;;;7.95;1.98;;;;;;;7.32;100.00;100456.44;5067894;28;20047;-64
2023/01/12 04:26:58;;;;;;;10.85;1.67;;;;;;;7.29;100.00;100461.44;5067233;28;20028;-64
2023/01/12 04:29:24;;;;;;;11.90;2.22;;;;;;;7.24;100.00;100457.81;5068066;28;20040;-64
2023/01/12 04:31:49;;;;;;;9.10;2.38;;;;;;;7.21;100.00;100449.13;5067437;28;20060;-65
2023/01/12 04:34:14;;;;;;;10.75;2.28;;;;;;;7.21;100.00;100443.13;5067690;28;20028;-64
2023/01/12 04:36:41;;;;;;;8.48;2.13;;;;;;;7.23;100.00;100435.44;5066902;28;20115;-65
2023/01/12 04:39:07;;;;;;;11.95;4.57;;;;;;;7.19;100.00;100406.97;5067578;28;20024;-64
2023/01/12 04:41:32;;;;;;;9.90;2.20;;;;;;;7.23;100.00;100409.66;5067662;28;20539;-65
2023/01/12 04:43:57;;;;;;;10.10;2.13;;;;;;;7.20;100.00;100418.16;5067816;28;20040;-64
2023/01/12 04:46:22;;;;;;;10.68;2.22;;;;;;;7.19;100.00;100395.78;5067670;28;20028;-64
2023/01/12 04:48:48;;;;;;;12.20;2.20;;;;;;;7.21;100.00;100392.44;5066456;28;20032;-64
2023/01/12 04:51:13;;;;;;;10.48;1.90;;;;;;;7.21;100.00;100382.13;5067579;28;20661;-65
2023/01/12 04:53:38;;;;;;;13.13;2.85;;;;;;;7.24;100.00;100395.94;5067215;28;20316;-65
2023/01/12 04:56:05;;;;;;;9.90;2.65;;;;;;;7.24;100.00;100370.19;5067267;28;20028;-64
2023/01/12 04:58:31;;;;;;;12.20;2.72;;;;;;;7.22;100.00;100370.13;5067309;28;20545;-65
2023/01/12 05:00:56;;;;;;;9.85;1.92;;;;;;;7.22;100.00;100372.69;5067429;28;20024;-64
2023/01/12 05:03:23;;;;;;;10.27;1.90;;;;;;;7.21;100.00;100353.78;5066796;28;20450;-64
2023/01/12 05:05:48;;;;;;;8.32;1.77;;;;;;;7.23;100.00;100350.38;5067211;28;20097;-64
2023/01/12 05:10:59;;;;;;;10.45;2.20;;;;;;;7.19;100.00;100359.69;5067589;28;20035;-65
2023/01/12 05:13:28;;;;;;;10.90;1.95;;;;;;;7.23;100.00;100373.59;5067104;28;20477;-65
2023/01/12 05:15:54;;;;;;;7.97;1.83;;;;;;;7.24;100.00;100359.88;5066652;28;20028;-65
2023/01/12 05:18:20;;;;;;;7.85;1.75;;;;;;;7.24;100.00;100341.81;5067390;28;20091;-65
2023/01/12 05:20:45;;;;;;;9.38;1.88;;;;;;;7.24;100.00;100344.41;5067581;28;20492;-64
2023/01/12 05:23:10;;;;;;;11.73;1.80;;;;;;;7.23;100.00;100358.13;5066599;28;20024;-65
2023/01/12 05:25:35;;;;;;;10.02;2.20;;;;;;;7.26;100.00;100358.22;5067082;28;20025;-64
2023/01/12 05:28:01;;;;;;;13.90;2.15;;;;;;;7.29;100.00;100353.19;5067047;28;20036;-65
2023/01/12 05:30:27;;;;;;;9.18;2.50;;;;;;;7.27;100.00;100349.66;5067125;28;20040;-65
2023/01/12 05:32:53;;;;;;;10.00;2.58;;;;;;;7.27;100.00;100359.97;5066960;28;20099;-65
2023/01/12 05:35:18;;;;;;;9.13;1.60;;;;;;;7.26;100.00;100353.97;5066673;28;20047;-64
2023/01/12 05:37:44;;;;;;;12.52;2.25;;;;;;;7.25;100.00;100347.03;5067146;28;20178;-65
2023/01/12 05:40:10;;;;;;;9.43;2.55;;;;;;;7.24;100.00;100323.78;5067268;28;20028;-64
2023/01/12 05:45:20;;;;;;;6.88;1.67;;;;;;;7.25;100.00;100339.31;5067354;28;20136;-64
2023/01/12 05:47:45;;;;;;;8.07;1.90;;;;;;;7.26;100.00;100345.34;5067083;28;20114;-65
2023/01/12 05:50:11;;;;;;;12.43;1.75;;;;;;;7.26;100.00;100342.75;5066643;28;20055;-65
2023/01/12 05:52:36;;;;;;;8.18;1.52;;;;;;;7.28;100.00;100320.50;5066914;28;20035;-65
2023/01/12 05:55:02;;;;;;;7.25;2.05;;;;;;;7.30;100.00;100352.38;5066962;28;20540;-64
2023/01/12 05:57:30;;;;;;;6.32;1.63;;;;;;;7.28;100.00;100347.16;5066465;28;20098;-64
2023/01/12 05:59:56;;;;;;;8.65;1.63;;;;;;;7.29;100.00;100332.56;5066813;28;20380;-65
2023/01/12 06:02:21;;;;;;;12.77;2.38;;;;;;;7.32;100.00;100327.53;5066733;28;20024;-64
2023/01/12 06:04:47;;;;;;;5.32;1.30;;;;;;;7.31;100.00;100339.53;5066430;28;20053;-65
2023/01/12 06:07:13;;;;;;;8.65;1.55;;;;;;;7.32;100.00;100330.13;5070720;28;20021;-64
2023/01/12 06:09:39;;;;;;;9.25;1.83;;;;;;;7.31;100.00;100320.63;5070320;28;20327;-65
2023/01/12 06:14:49;;;;;;;8.30;1.65;;;;;;;7.29;100.00;100338.59;5070043;28;20532;-65
2023/01/12 06:17:14;;;;;;;7.05;1.88;;;;;;;7.33;100.00;100324.13;5070079;28;20036;-65
2023/01/12 06:19:39;;;;;;;6.55;1.67;;;;;;;7.36;100.00;100334.56;5070240;28;20047;-64
2023/01/12 06:22:08;;;;;;;4.20;1.40;;;;;;;7.39;100.00;100338.97;5070273;28;20044;-64
2023/01/12 06:24:33;;;;;;;6.47;1.10;;;;;;;7.40;100.00;100325.22;5069904;28;20111;-65
2023/01/12 06:26:59;;;;;;;7.43;1.33;;;;;;;7.38;100.00;100332.91;5069634;28;20028;-65
2023/01/12 06:29:24;;;;;;;6.43;1.23;;;;;;;7.40;100.00;100339.00;5069922;28;20396;-65
2023/01/12 06:31:49;;;;;;;8.45;1.90;;;;;;;7.44;100.00;100334.84;5069915;28;20047;-65
2023/01/12 06:34:15;;;;;;;8.15;1.20;;;;;;;7.43;100.00;100341.69;5069295;28;20028;-65
2023/01/12 06:36:40;;;;;;;4.38;0.75;;;;;;;7.43;100.00;100331.38;5070072;28;20028;-65
2023/01/12 06:39:06;;;;;;;3.63;1.00;;;;;;;7.43;100.00;100336.53;5069807;28;20481;-65
2023/01/12 06:44:17;;;;;;;4.28;0.85;;;;;;;7.50;100.00;100342.78;5069636;28;20039;-64
2023/01/12 06:46:42;;;;;;;6.43;1.05;;;;;;;7.50;100.00;100347.94;5069686;28;20025;-64
2023/01/12 06:49:07;;;;;;;3.78;0.90;;;;;;;7.52;100.00;100336.00;5069384;28;20043;-64
2023/01/12 06:51:32;;;;;;;7.53;1.38;;;;;;;7.56;100.00;100331.81;5069131;28;20556;-65
2023/01/12 06:53:58;;;;;;;6.90;1.25;;;;;;;7.57;100.00;100341.34;5069886;28;20028;-64
2023/01/12 06:56:23;;;;;;;3.60;0.90;;;;;;;7.59;100.00;100344.81;5069583;28;20051;-64
2023/01/12 06:58:48;;;;;;;4.25;1.08;;;;;;;7.61;100.00;100345.75;5069642;28;20449;-65
2023/01/12 07:01:14;;;;;;;5.18;1.00;;;;;;;7.59;100.00;100329.34;5069372;28;20572;-64
2023/01/12 07:03:40;;;;;;;3.53;1.30;;;;;;;7.58;100.00;100330.19;5069490;28;20027;-65
2023/01/12 07:06:05;;;;;;;6.20;1.50;;;;;;;7.61;100.00;100329.44;5069609;28;20114;-64
2023/01/12 07:08:31;;;;;;;6.63;1.33;;;;;;;7.63;100.00;100326.06;5069218;28;20211;-65
2023/01/12 07:11:00;;;;;;;4.50;0.88;;;;;;;7.63;100.00;100331.22;5069461;28;20354;-64
2023/01/12 07:13:26;;;;;;;4.50;1.13;;;;;;;7.61;100.00;100329.44;5068575;28;20016;-65
2023/01/12 07:15:51;;;;;;;5.85;1.13;;;;;;;7.62;100.00;100328.59;5067790;28;20070;-65
2023/01/12 07:18:16;;;;;;;5.90;1.17;;;;;;;7.63;100.00;100325.19;5068698;28;20396;-65
2023/01/12 07:20:41;;;;;;;1.77;0.70;;;;;;;7.64;100.00;100327.84;5069155;28;20055;-65
2023/01/12 07:23:07;;;;;;;4.07;1.90;;;;;;;7.66;100.00;100331.31;5068713;28;20027;-65
2023/01/12 07:25:32;;;;;;;1.92;1.00;;;;;;;7.68;100.00;100329.69;5068792;28;20020;-65
2023/01/12 07:27:57;;;;;;;4.65;1.20;;;;;;;7.70;100.00;100334.91;5069030;28;20055;-65
2023/01/12 07:30:24;;;;;;;5.63;1.38;;;;;;;7.71;100.00;100346.09;5069211;28;20029;-65
2023/01/12 07:32:50;;;;;;;3.53;0.98;;;;;;;7.72;100.00;100353.03;5068400;28;20048;-65
2023/01/12 07:35:17;;;;;;;4.07;1.13;;;;;;;7.70;100.00;100332.31;5067441;28;20059;-65
2023/01/12 07:37:55;;;;;;;2.40;1.00;;;;;;;7.71;100.00;100348.69;5068675;28;20031;-65
2023/01/12 07:40:20;;;;;;;3.20;0.90;;;;;;;7.77;100.00;100346.34;5068626;28;20108;-65
2023/01/12 07:42:46;;;;;;;1.08;0.82;;;;;;;7.74;100.00;100351.34;5068066;28;20532;-64
2023/01/12 07:45:11;;;;;;;2.55;1.00;;;;;;;7.73;100.00;100352.19;5068593;28;20030;-65
2023/01/12 07:47:36;;;;;;;3.40;0.93;;;;;;;7.77;100.00;100361.81;5067963;28;20025;-65
2023/01/12 07:50:02;;;;;;;3.83;1.38;;;;;;;7.77;100.00;100357.50;5066773;28;20078;-65
2023/01/12 07:52:28;;;;;;;7.78;1.30;;;;;;;7.77;100.00;100362.66;5066826;28;20073;-65
2023/01/12 07:54:53;;;;;;;4.63;0.90;;;;;;;7.79;100.00;100358.44;5066350;28;20464;-64
2023/01/12 07:57:18;;;;;;;2.40;0.80;;;;;;;7.80;100.00;100354.16;5067397;28;20085;-65
2023/01/12 07:59:44;;;;;;;1.98;0.73;;;;;;;7.80;100.00;100365.38;5066423;28;20389;-65
2023/01/12 08:02:15;;;;;;;2.85;1.15;;;;;;;7.81;100.00;100350.75;5066509;28;20628;-64
2023/01/12 08:04:44;;;;;;;4.65;1.10;;;;;;;7.81;100.00;100363.66;5066631;28;20413;-64
2023/01/12 08:07:10;;;;;;;4.07;0.82;;;;;;;7.84;100.00;100355.16;5067321;28;20025;-64
2023/01/12 08:09:35;;;;;;;2.58;0.88;;;;;;;7.87;100.00;100374.22;5068078;28;20047;-64
2023/01/12 08:12:01;;;;;;;4.07;1.00;;;;;;;7.90;100.00;100369.16;5067462;28;20419;-65
2023/01/12 08:14:37;;;;;;;4.72;1.35;;;;;;;7.89;100.00;100388.03;5068175;28;20024;-65
2023/01/12 08:17:05;;;;;;;4.10;0.90;;;;;;;7.90;100.00;100383.75;5068239;28;20031;-65
2023/01/12 08:19:42;;;;;;;3.83;0.88;;;;;;;7.92;100.00;100393.31;5067981;28;20085;-64
2023/01/12 08:22:14;;;;;;;2.95;1.00;;;;;;;7.92;100.00;100385.56;5067995;28;20047;-65
2023/01/12 08:24:45;;;;;;;3.03;1.10;;;;;;;7.92;100.00;100377.81;5067163;28;20031;-64
2023/01/12 08:27:11;;;;;;;3.53;1.10;;;;;;;7.97;100.00;100400.34;5068291;28;20036;-64
2023/01/12 08:29:42;;;;;;;2.80;1.30;;;;;;;7.97;100.00;100390.03;5066708;28;20384;-64
2023/01/12 08:32:09;;;;;;;3.92;1.00;;;;;;;7.96;100.00;100398.56;5067405;28;20111;-64
2023/01/12 08:34:37;;;;;;;4.15;1.08;;;;;;;7.96;100.00;100403.72;5067870;28;20480;-64
2023/01/12 08:37:05;;;;;;;4.72;1.02;;;;;;;8.01;100.00;100399.59;5067929;28;20036;-64
2023/01/12 08:39:33;;;;;;;3.13;1.08;;;;;;;8.01;100.00;100408.25;5067491;28;20047;-64
2023/01/12 08:41:58;;;;;;;3.50;0.80;;;;;;;8.01;100.00;100397.03;5068043;28;20016;-64
2023/01/12 08:44:26;;;;;;;2.63;0.93;;;;;;;8.02;100.00;100403.97;5067552;28;20098;-64
2023/01/12 08:46:52;;;;;;;2.33;0.93;;;;;;;8.02;100.00;100412.56;5067167;28;20426;-64
2023/01/12 08:49:22;;;;;;;2.75;0.98;;;;;;;8.04;100.00;100407.47;5067716;28;20388;-64
2023/01/12 08:51:47;;;;;;;1.35;0.80;;;;;;;8.06;100.00;100421.28;5067308;28;20040;-64
2023/01/12 08:54:14;;;;;;;2.60;1.08;;;;;;;8.06;100.00;100418.72;5067863;28;20086;-64
2023/01/12 08:56:40;;;;;;;4.13;0.90;;;;;;;8.08;100.00;100417.06;5067309;28;20030;-65
2023/01/12 08:59:05;;;;;;;2.90;0.93;;;;;;;8.11;100.00;100421.47;5067129;28;20025;-65
2023/01/12 09:01:32;;;;;;;2.08;1.08;;;;;;;8.13;100.00;100433.59;5067245;28;20122;-65
2023/01/12 09:03:58;;;;;;;3.22;1.45;;;;;;;8.14;100.00;100434.47;5067873;28;20024;-64
2023/01/12 09:06:26;;;;;;;2.75;1.00;;;;;;;8.16;100.00;100438.88;5067674;28;20028;-64
2023/01/12 09:08:53;;;;;;;1.50;0.70;;;;;;;8.17;100.00;100435.47;5067575;28;20021;-64
2023/01/12 09:11:19;;;;;;;3.15;0.90;;;;;;;8.16;100.00;100431.16;5066372;28;20024;-64
2023/01/12 09:13:44;;;;;;;2.20;0.88;;;;;;;8.17;100.00;100438.06;5067094;28;20045;-65
2023/01/12 09:16:12;;;;;;;1.25;0.70;;;;;;;8.19;100.00;100447.53;5067473;28;20024;-64
2023/01/12 09:18:38;;;;;;;1.73;1.10;;;;;;;8.22;100.00;100450.25;5067132;28;20471;-64
2023/01/12 09:21:15;;;;;;;2.35;1.10;;;;;;;8.21;100.00;100445.88;5067351;28;20435;-64
2023/01/12 09:23:42;;;;;;;1.75;1.13;;;;;;;8.22;100.00;100453.69;5066972;28;20052;-64
2023/01/12 09:26:10;;;;;;;1.73;0.80;;;;;;;8.25;100.00;100463.25;5066809;28;20036;-64
2023/01/12 09:28:36;;;;;;;3.60;1.05;;;;;;;8.26;100.00;100454.69;5067416;28;20033;-64
2023/01/12 09:31:07;;;;;;;2.90;1.02;;;;;;;8.29;100.00;100449.66;5067059;28;20300;-65
2023/01/12 09:33:34;;;;;;;2.60;0.90;;;;;;;8.28;100.00;100453.03;5067141;28;20025;-64
2023/01/12 09:36:04;;;;;;;2.72;0.90;;;;;;;8.30;100.00;100456.56;5066870;28;20040;-64
2023/01/12 09:38:29;;;;;;;2.83;0.82;;;;;;;8.28;100.00;100458.19;5066828;28;20032;-65
2023/01/12 09:40:58;;;;;;;2.67;0.93;;;;;;;8.33;100.00;100459.22;5068944;28;20029;-64
2023/01/12 09:49:05;;;;;;;1.27;0.55;;;;;;;8.37;100.00;100461.09;5071281;28;20629;-64
2023/01/12 09:51:41;;;;;;;1.70;0.70;;;;;;;8.43;100.00;100469.88;5070717;28;20382;-64
2023/01/12 09:54:06;;;;;;;0.60;0.50;;;;;;;8.39;100.00;100464.63;5070212;28;20032;-65
2023/01/12 09:56:39;;;;;;;1.90;0.55;;;;;;;8.39;100.00;100472.38;5070290;28;20484;-64
2023/01/12 09:59:21;;;;;;;1.05;0.73;;;;;;;8.39;100.00;100472.38;5070562;28;20036;-65
2023/01/12 10:01:47;;;;;;;0.73;0.73;;;;;;;8.39;100.00;100474.97;5070736;28;20480;-64
2023/01/12 10:04:13;;;;;;;1.48;0.77;;;;;;;8.38;100.00;100473.19;5071251;28;20028;-64
2023/01/12 10:06:38;;;;;;;1.45;0.63;;;;;;;8.41;100.00;100490.50;5070332;28;20138;-64
2023/01/12 10:09:10;;;;;;;2.17;1.00;;;;;;;8.40;100.00;100484.44;5070172;28;20425;-65
2023/01/12 10:11:59;;;;;;;0.60;0.60;;;;;;;8.41;100.00;100485.34;5070791;28;20031;-64
2023/01/12 10:14:46;;;;;;;0.63;0.60;;;;;;;8.40;100.00;100479.28;5070634;28;20036;-65
2023/01/12 10:17:45;;;;;;;0.93;0.70;;;;;;;8.44;100.00;100487.16;5069918;28;20028;-64
2023/01/12 10:20:26;;;;;;;0.98;0.68;;;;;;;8.44;100.00;100487.16;5070224;28;20503;-64
2023/01/12 10:23:17;;;;;;;1.45;0.90;;;;;;;8.44;100.00;100484.56;5070639;28;20021;-65
2023/01/12 10:25:48;;;;;;;2.25;0.80;;;;;;;8.47;100.00;100485.53;5070172;28;20028;-65
2023/01/12 10:28:28;;;;;;;0.93;0.50;;;;;;;8.48;100.00;100494.16;5069119;28;20039;-65
2023/01/12 10:30:55;;;;;;;1.40;0.70;;;;;;;8.49;100.00;100488.19;5070248;28;20488;-65
2023/01/12 10:33:29;;;;;;;1.70;0.50;;;;;;;8.52;100.00;100481.44;5069988;28;20335;-65
2023/01/12 10:36:02;;;;;;;2.17;0.70;;;;;;;8.50;100.00;100482.19;5070025;28;20055;-65
2023/01/12 10:38:51;;;;;;;1.02;0.70;;;;;;;8.51;100.00;100484.81;5069254;28;20992;-65
2023/01/12 10:41:19;;;;;;;1.80;0.70;;;;;;;8.55;100.00;100472.00;5069988;28;20549;-65
2023/01/12 10:43:54;;;;;;;1.15;0.73;;;;;;;8.55;100.00;100485.81;5070182;28;20025;-65
2023/01/12 10:46:22;;;;;;;0.65;0.40;;;;;;;8.57;100.00;100486.78;5070144;28;20116;-65
2023/01/12 10:48:50;;;;;;;1.17;0.90;;;;;;;8.56;100.00;100474.72;5069615;28;20115;-65
2023/01/12 10:51:34;;;;;;;0.82;0.80;;;;;;;8.60;100.00;100481.72;5069381;28;20522;-65
2023/01/12 10:54:16;;;;;;;1.63;0.40;;;;;;;8.60;100.00;100488.59;5069476;28;20040;-65
2023/01/12 10:56:52;;;;;;;0.73;0.50;;;;;;;8.60;100.00;100481.72;5070107;28;20425;-65
2023/01/12 10:59:20;;;;;;;0.93;0.50;;;;;;;8.61;100.00;100483.50;5069231;28;20034;-64
2023/01/12 11:01:49;;;;;;;3.08;0.80;;;;;;;8.62;100.00;100477.47;5069504;28;20144;-65
2023/01/12 11:04:19;;;;;;;0.63;0.50;;;;;;;8.63;100.00;100492.13;5069620;28;20028;-65
2023/01/12 11:07:14;;;;;;;1.63;0.70;;;;;;;8.63;100.00;100484.41;5070191;28;20401;-65
2023/01/12 11:09:42;;;;;;;1.02;0.60;;;;;;;8.62;100.00;100485.22;5069311;28;20028;-65
2023/01/12 11:12:47;;;;;;;0.77;0.65;;;;;;;8.62;100.00;100480.06;5069086;28;20059;-65
2023/01/12 11:15:13;;;;;;;1.50;0.70;;;;;;;8.62;100.00;100482.66;5069185;28;20032;-65
2023/01/12 11:20:41;;;;;;;0.93;0.50;;;;;;;8.65;100.00;100468.97;5045135;28;20561;-65
2023/01/12 11:23:18;;;;;;;1.50;0.55;;;;;;;8.67;100.00;100471.59;5069385;28;20198;-65
2023/01/12 11:25:46;;;;;;;1.90;0.75;;;;;;;8.66;100.00;100481.06;5069018;28;20038;-65
2023/01/12 11:28:18;;;;;;;1.08;1.05;;;;;;;8.67;100.00;100481.94;5068909;28;20041;-65
2023/01/12 11:30:57;;;;;;;1.63;0.60;;;;;;;8.68;100.00;100484.56;5068363;28;20027;-65
2023/01/12 11:33:29;;;;;;;0.82;0.50;;;;;;;8.66;100.00;100478.47;5068750;28;20029;-65
2023/01/12 11:36:21;;;;;;;1.33;0.50;;;;;;;8.68;100.00;100473.34;5069480;28;20055;-64
2023/01/12 11:38:50;;;;;;;1.52;0.40;;;;;;;8.69;100.00;100467.38;5068722;28;20115;-65
2023/01/12 11:41:28;;;;;;;2.45;0.50;;;;;;;8.70;100.00;100472.59;5069229;28;20032;-65
2023/01/12 11:44:19;;;;;;;1.13;0.60;;;;;;;8.68;100.00;100479.41;5069105;28;20115;-65
2023/01/12 11:46:55;;;;;;;2.10;0.70;;;;;;;8.68;100.00;100469.06;5069221;28;20458;-65
2023/01/12 11:49:45;;;;;;;0.65;0.52;;;;;;;8.70;100.00;100466.53;5068960;28;20475;-65
2023/01/12 11:52:13;;;;;;;1.25;0.60;;;;;;;8.70;100.00;100477.75;5069019;28;20070;-65
2023/01/12 11:54:39;;;;;;;0.60;0.55;;;;;;;8.71;100.00;100468.28;5068954;28;20109;-65
2023/01/12 11:57:05;;;;;;;1.30;0.60;;;;;;;8.73;100.00;100464.94;5068329;28;20043;-65
2023/01/12 11:59:45;;;;;;;1.58;0.65;;;;;;;8.76;100.00;100461.59;5068220;28;20477;-65
2023/01/12 12:02:32;;;;;;;1.15;0.55;;;;;;;8.74;100.00;100460.66;5067786;28;20056;-65
2023/01/12 12:05:12;;;;;;;2.33;0.60;;;;;;;8.76;100.00;100459.00;5068412;28;20058;-65
2023/01/12 12:08:04;;;;;;;3.38;0.93;;;;;;;8.78;100.00;100457.31;5068370;28;20070;-65
2023/01/12 12:10:39;;;;;;;;;;;;;;;8.75;100.00;100455.53;5066135;28;20041;-65
2023/01/12 12:13:14;;;;;;;2.15;0.70;;;;;;;8.77;100.00;100453.88;5067780;28;20624;-65
2023/01/12 12:15:49;;;;;;;1.13;0.75;;;;;;;8.80;100.00;100447.03;5068383;28;20023;-65